createdAt,value
2022-07-30T00:00:25.373Z,0.00
2022-07-30T00:01:21.249Z,0.00
2022-07-30T00:02:22.398Z,0.00
2022-07-30T00:03:21.259Z,0.00
2022-07-30T00:04:21.243Z,0.00
2022-07-30T00:05:21.268Z,0.00
2022-07-30T00:06:21.300Z,0.00
2022-07-30T00:07:21.327Z,0.00
2022-07-30T00:08:21.358Z,0.00
2022-07-30T00:09:21.385Z,0.00
2022-07-30T00:10:21.415Z,0.00
2022-07-30T00:11:24.652Z,0.00
2022-07-30T00:12:21.474Z,0.00
2022-07-30T00:13:21.501Z,0.00
2022-07-30T00:14:21.733Z,0.00
2022-07-30T00:15:21.560Z,0.00
2022-07-30T00:16:21.709Z,0.00
2022-07-30T00:17:21.614Z,0.00
2022-07-30T00:18:22.445Z,0.00
2022-07-30T00:19:21.672Z,0.00
2022-07-30T00:20:21.705Z,0.00
2022-07-30T00:21:35.500Z,0.00
2022-07-30T00:23:21.791Z,0.00
2022-07-30T00:24:21.820Z,0.00
2022-07-30T00:25:21.850Z,0.00
2022-07-30T00:26:21.874Z,0.00
2022-07-30T00:27:21.905Z,0.00
2022-07-30T00:28:21.944Z,0.00
2022-07-30T00:29:21.962Z,0.00
2022-07-30T00:30:21.993Z,0.00
2022-07-30T00:31:22.021Z,0.00
2022-07-30T00:32:22.047Z,0.00
2022-07-30T00:33:22.076Z,0.00
2022-07-30T00:34:22.103Z,0.00
2022-07-30T00:35:22.135Z,0.00
2022-07-30T00:36:22.166Z,0.00
2022-07-30T00:37:22.192Z,0.00
2022-07-30T00:38:22.219Z,0.00
2022-07-30T00:39:22.250Z,0.00
2022-07-30T00:40:22.277Z,0.00
2022-07-30T00:41:22.307Z,0.00
2022-07-30T00:42:22.538Z,0.00
2022-07-30T00:43:22.364Z,0.00
2022-07-30T00:44:22.391Z,0.00
2022-07-30T00:45:22.421Z,0.00
2022-07-30T00:46:22.448Z,0.00
2022-07-30T00:47:22.479Z,0.00
2022-07-30T00:48:22.507Z,0.00
2022-07-30T00:50:22.569Z,0.00
2022-07-30T00:51:22.595Z,0.00
2022-07-30T00:53:22.651Z,0.00
2022-07-30T00:54:22.678Z,0.00
2022-07-30T00:55:22.720Z,0.00
2022-07-30T00:56:22.734Z,0.00
2022-07-30T00:57:22.765Z,0.00
2022-07-30T00:58:22.792Z,0.00
2022-07-30T00:59:22.822Z,0.00
2022-07-30T01:00:22.869Z,0.00
2022-07-30T01:01:26.162Z,0.00
2022-07-30T01:02:22.939Z,0.00
2022-07-30T01:03:25.555Z,0.00
2022-07-30T01:04:22.964Z,0.00
2022-07-30T01:05:22.990Z,0.00
2022-07-30T01:06:23.021Z,0.00
2022-07-30T01:07:24.009Z,0.00
2022-07-30T01:08:23.089Z,0.00
2022-07-30T01:09:23.106Z,0.00
2022-07-30T01:11:23.165Z,0.00
2022-07-30T01:12:23.191Z,0.00
2022-07-30T01:13:23.374Z,0.00
2022-07-30T01:14:23.248Z,0.00
2022-07-30T01:15:23.290Z,0.00
2022-07-30T01:16:23.349Z,0.00
2022-07-30T01:17:23.338Z,0.00
2022-07-30T01:18:23.360Z,0.00
2022-07-30T01:19:26.216Z,0.00
2022-07-30T01:20:23.428Z,0.00
2022-07-30T01:21:23.446Z,0.00
2022-07-30T01:22:23.472Z,0.00
2022-07-30T01:23:23.501Z,0.00
2022-07-30T01:24:23.532Z,0.00
2022-07-30T01:25:23.559Z,0.00
2022-07-30T01:26:23.598Z,0.00
2022-07-30T01:27:23.616Z,0.00
2022-07-30T01:28:23.643Z,0.00
2022-07-30T01:29:23.672Z,0.00
2022-07-30T01:30:23.700Z,0.00
2022-07-30T01:31:23.788Z,0.00
2022-07-30T01:32:23.757Z,0.00
2022-07-30T01:33:23.790Z,0.00
2022-07-30T01:34:24.015Z,0.00
2022-07-30T01:35:23.843Z,0.00
2022-07-30T01:36:23.868Z,0.00
2022-07-30T01:37:23.896Z,0.00
2022-07-30T01:38:23.923Z,0.00
2022-07-30T01:39:23.952Z,0.00
2022-07-30T01:40:23.981Z,0.00
2022-07-30T01:41:24.009Z,0.00
2022-07-30T01:42:24.035Z,0.00
2022-07-30T01:43:24.067Z,0.00
2022-07-30T01:44:24.236Z,0.00
2022-07-30T01:45:24.145Z,0.00
2022-07-30T01:46:24.203Z,0.00
2022-07-30T01:47:24.183Z,0.00
2022-07-30T01:48:24.204Z,0.00
2022-07-30T01:49:24.310Z,0.00
2022-07-30T01:50:24.261Z,0.00
2022-07-30T01:51:24.292Z,0.00
2022-07-30T01:52:24.329Z,0.00
2022-07-30T01:53:25.358Z,0.00
2022-07-30T01:54:24.384Z,0.00
2022-07-30T01:55:24.606Z,0.00
2022-07-30T01:57:24.460Z,0.00
2022-07-30T01:58:24.487Z,0.00
2022-07-30T01:59:24.517Z,0.00
2022-07-30T02:00:24.544Z,0.00
2022-07-30T02:01:24.623Z,0.00
2022-07-30T02:02:24.598Z,0.00
2022-07-30T02:03:24.656Z,0.00
2022-07-30T02:04:24.858Z,0.00
2022-07-30T02:05:24.684Z,0.00
2022-07-30T02:06:24.710Z,0.00
2022-07-30T02:07:24.943Z,0.00
2022-07-30T02:08:24.771Z,0.00
2022-07-30T02:09:24.797Z,0.00
2022-07-30T02:10:24.825Z,0.00
2022-07-30T02:11:24.868Z,0.00
2022-07-30T02:12:24.880Z,0.00
2022-07-30T02:13:24.910Z,0.00
2022-07-30T02:14:24.937Z,0.00
2022-07-30T02:15:24.967Z,0.00
2022-07-30T02:16:25.025Z,0.00
2022-07-30T02:17:30.222Z,0.00
2022-07-30T02:18:25.049Z,0.00
2022-07-30T02:19:25.078Z,0.00
2022-07-30T02:20:26.459Z,0.00
2022-07-30T02:21:25.133Z,0.00
2022-07-30T02:22:25.160Z,0.00
2022-07-30T02:23:25.189Z,0.00
2022-07-30T02:24:25.217Z,0.00
2022-07-30T02:25:25.247Z,0.00
2022-07-30T02:26:25.282Z,0.00
2022-07-30T02:27:25.302Z,0.00
2022-07-30T02:28:25.331Z,0.00
2022-07-30T02:29:25.359Z,0.00
2022-07-30T02:30:25.385Z,0.00
2022-07-30T02:31:25.451Z,0.00
2022-07-30T02:32:26.899Z,0.00
2022-07-30T02:33:25.471Z,0.00
2022-07-30T02:34:25.496Z,0.00
2022-07-30T02:35:25.527Z,0.00
2022-07-30T02:36:25.567Z,0.00
2022-07-30T02:37:43.023Z,0.00
2022-07-30T02:38:25.608Z,0.00
2022-07-30T02:39:25.637Z,0.00
2022-07-30T02:40:25.663Z,0.00
2022-07-30T02:41:25.708Z,0.00
2022-07-30T02:42:25.720Z,0.00
2022-07-30T02:43:25.761Z,0.00
2022-07-30T02:44:25.777Z,0.00
2022-07-30T02:45:25.805Z,0.00
2022-07-30T02:46:25.889Z,0.00
2022-07-30T02:47:25.861Z,0.00
2022-07-30T02:48:34.726Z,0.00
2022-07-30T02:49:25.917Z,0.00
2022-07-30T02:50:25.945Z,0.00
2022-07-30T02:51:25.972Z,0.00
2022-07-30T02:52:26.000Z,0.00
2022-07-30T02:53:26.029Z,0.00
2022-07-30T02:54:26.056Z,0.00
2022-07-30T02:55:26.086Z,0.00
2022-07-30T02:56:26.112Z,0.00
2022-07-30T02:57:26.140Z,0.00
2022-07-30T02:58:26.167Z,0.00
2022-07-30T02:59:26.197Z,0.00
2022-07-30T03:00:26.260Z,0.00
2022-07-30T03:01:26.253Z,0.00
2022-07-30T03:02:29.289Z,0.00
2022-07-30T03:03:26.312Z,0.00
2022-07-30T03:04:26.339Z,0.00
2022-07-30T03:05:26.365Z,0.00
2022-07-30T03:06:26.392Z,0.00
2022-07-30T03:07:26.421Z,0.00
2022-07-30T03:08:26.449Z,0.00
2022-07-30T03:09:26.476Z,0.00
2022-07-30T03:10:26.502Z,0.00
2022-07-30T03:11:26.534Z,0.00
2022-07-30T03:12:26.559Z,0.00
2022-07-30T03:13:26.588Z,0.00
2022-07-30T03:14:26.614Z,0.00
2022-07-30T03:15:26.644Z,0.00
2022-07-30T03:16:26.720Z,0.00
2022-07-30T03:17:26.700Z,4.00
2022-07-30T03:18:26.726Z,4.00
2022-07-30T03:19:26.756Z,4.00
2022-07-30T03:20:26.782Z,0.00
2022-07-30T03:21:26.814Z,4.00
2022-07-30T03:22:31.222Z,4.00
2022-07-30T03:23:26.868Z,4.00
2022-07-30T03:24:26.898Z,4.00
2022-07-30T03:25:26.923Z,8.00
2022-07-30T03:26:26.950Z,4.00
2022-07-30T03:27:26.979Z,8.00
2022-07-30T03:28:27.008Z,8.00
2022-07-30T03:29:27.049Z,8.00
2022-07-30T03:30:27.077Z,12.00
2022-07-30T03:31:28.355Z,12.00
2022-07-30T03:32:27.119Z,20.00
2022-07-30T03:33:38.827Z,20.00
2022-07-30T03:34:27.181Z,24.00
2022-07-30T03:35:27.197Z,28.00
2022-07-30T03:36:27.222Z,32.00
2022-07-30T03:37:27.251Z,32.00
2022-07-30T03:38:27.292Z,40.00
2022-07-30T03:39:27.306Z,44.00
2022-07-30T03:40:27.331Z,48.00
2022-07-30T03:41:27.361Z,56.00
2022-07-30T03:42:27.386Z,64.00
2022-07-30T03:43:33.264Z,72.00
2022-07-30T03:44:27.762Z,80.00
2022-07-30T03:45:27.473Z,88.00
2022-07-30T03:46:27.569Z,100.00
2022-07-30T03:47:27.526Z,112.00
2022-07-30T03:48:27.552Z,116.00
2022-07-30T03:49:27.636Z,132.00
2022-07-30T03:50:27.606Z,140.00
2022-07-30T03:51:27.636Z,152.00
2022-07-30T03:52:27.661Z,168.00
2022-07-30T03:53:27.693Z,180.00
2022-07-30T03:54:27.722Z,196.00
2022-07-30T03:55:27.747Z,208.00
2022-07-30T03:56:27.777Z,224.00
2022-07-30T03:57:27.804Z,240.00
2022-07-30T03:58:27.829Z,260.00
2022-07-30T03:59:27.860Z,272.00
2022-07-30T04:00:27.890Z,292.00
2022-07-30T04:01:27.961Z,312.00
2022-07-30T04:02:27.942Z,332.00
2022-07-30T04:03:28.050Z,352.00
2022-07-30T04:04:28.043Z,372.00
2022-07-30T04:05:28.027Z,392.00
2022-07-30T04:06:28.054Z,416.00
2022-07-30T04:07:28.082Z,440.00
2022-07-30T04:08:28.112Z,464.00
2022-07-30T04:09:28.142Z,488.00
2022-07-30T04:10:28.166Z,512.00
2022-07-30T04:11:41.460Z,540.00
2022-07-30T04:12:28.222Z,560.00
2022-07-30T04:13:28.251Z,588.00
2022-07-30T04:14:28.280Z,612.00
2022-07-30T04:16:35.572Z,644.00
2022-07-30T04:16:41.345Z,676.00
2022-07-30T04:17:28.409Z,736.00
2022-07-30T04:18:28.390Z,800.00
2022-07-30T04:19:28.422Z,868.00
2022-07-30T04:20:28.449Z,932.00
2022-07-30T04:21:28.476Z,988.00
2022-07-30T04:22:28.501Z,1044.00
2022-07-30T04:23:28.532Z,1104.00
2022-07-30T04:24:28.558Z,1160.00
2022-07-30T04:25:28.591Z,1212.00
2022-07-30T04:26:28.614Z,1264.00
2022-07-30T04:27:28.645Z,1312.00
2022-07-30T04:28:28.670Z,1372.00
2022-07-30T04:29:28.699Z,1428.00
2022-07-30T04:30:28.727Z,1496.00
2022-07-30T04:31:28.814Z,1572.00
2022-07-30T04:32:28.782Z,1652.00
2022-07-30T04:33:28.810Z,1732.00
2022-07-30T04:34:28.838Z,1824.00
2022-07-30T04:35:51.456Z,1920.00
2022-07-30T04:36:28.895Z,2032.00
2022-07-30T04:37:28.926Z,2152.00
2022-07-30T04:38:28.949Z,2296.00
2022-07-30T04:39:28.980Z,2440.00
2022-07-30T04:40:29.009Z,2592.00
2022-07-30T04:41:29.035Z,2744.00
2022-07-30T04:42:29.061Z,2884.00
2022-07-30T04:43:29.092Z,3012.00
2022-07-30T04:44:29.121Z,3136.00
2022-07-30T04:45:29.152Z,3260.00
2022-07-30T04:46:29.222Z,3376.00
2022-07-30T04:47:29.201Z,3520.00
2022-07-30T04:48:31.851Z,3704.00
2022-07-30T04:49:29.285Z,3828.00
2022-07-30T04:50:29.283Z,3896.00
2022-07-30T04:51:29.313Z,4020.00
2022-07-30T04:52:29.340Z,4152.00
2022-07-30T04:53:29.367Z,4276.00
2022-07-30T04:54:29.396Z,4420.00
2022-07-30T04:55:29.425Z,4588.00
2022-07-30T04:56:29.452Z,4776.00
2022-07-30T04:57:29.482Z,4960.00
2022-07-30T04:58:29.508Z,5160.00
2022-07-30T04:59:29.542Z,5328.00
2022-07-30T05:00:32.425Z,5488.00
2022-07-30T05:01:37.591Z,5664.00
2022-07-30T05:02:29.621Z,6448.00
2022-07-30T05:03:29.652Z,7312.00
2022-07-30T05:04:29.679Z,7364.00
2022-07-30T05:05:29.771Z,6248.00
2022-07-30T05:06:29.736Z,6228.00
2022-07-30T05:07:29.767Z,6612.00
2022-07-30T05:08:29.882Z,6584.00
2022-07-30T05:09:29.826Z,6320.00
2022-07-30T05:10:29.853Z,6784.00
2022-07-30T05:11:29.884Z,7444.00
2022-07-30T05:12:29.908Z,7616.00
2022-07-30T05:13:34.581Z,7224.00
2022-07-30T05:14:29.963Z,6992.00
2022-07-30T05:15:36.910Z,7060.00
2022-07-30T05:16:30.082Z,7100.00
2022-07-30T05:17:30.052Z,7164.00
2022-07-30T05:18:30.079Z,7284.00
2022-07-30T05:19:30.113Z,7256.00
2022-07-30T05:20:30.138Z,7288.00
2022-07-30T05:21:30.164Z,7360.00
2022-07-30T05:22:30.195Z,7408.00
2022-07-30T05:23:30.222Z,7468.00
2022-07-30T05:24:30.254Z,7580.00
2022-07-30T05:25:30.280Z,7640.00
2022-07-30T05:26:30.314Z,7968.00
2022-07-30T05:27:30.338Z,7964.00
2022-07-30T05:28:30.369Z,7884.00
2022-07-30T05:29:30.397Z,7968.00
2022-07-30T05:30:30.429Z,8108.00
2022-07-30T05:31:31.220Z,8308.00
2022-07-30T05:32:30.486Z,8536.00
2022-07-30T05:33:40.803Z,8852.00
2022-07-30T05:34:30.543Z,9188.00
2022-07-30T05:35:30.571Z,9348.00
2022-07-30T05:36:30.602Z,9424.00
2022-07-30T05:37:30.628Z,9600.00
2022-07-30T05:38:30.665Z,9768.00
2022-07-30T05:39:30.685Z,9904.00
2022-07-30T05:40:30.716Z,10008.00
2022-07-30T05:41:32.774Z,10048.00
2022-07-30T05:42:30.774Z,10148.00
2022-07-30T05:43:30.802Z,10436.00
2022-07-30T05:44:30.835Z,12372.00
2022-07-30T05:45:30.860Z,13124.00
2022-07-30T05:46:30.992Z,11484.00
2022-07-30T05:47:30.918Z,11124.00
2022-07-30T05:48:30.950Z,10796.00
2022-07-30T05:49:30.976Z,11076.00
2022-07-30T05:50:31.007Z,11476.00
2022-07-30T05:56:25.344Z,12376.00
2022-07-30T05:57:25.373Z,14920.00
2022-07-30T05:58:25.402Z,22272.00
2022-07-30T05:59:25.434Z,27680.00
2022-07-30T06:00:25.463Z,30240.00
2022-07-30T06:01:25.555Z,34720.00
2022-07-30T06:02:25.520Z,42976.00
2022-07-30T06:03:25.552Z,44288.00
2022-07-30T06:04:25.650Z,44000.00
2022-07-30T06:05:25.611Z,46720.00
2022-07-30T06:06:25.641Z,41408.00
2022-07-30T06:07:25.673Z,33664.00
2022-07-30T06:08:25.701Z,36448.00
2022-07-30T06:09:37.034Z,37408.00
2022-07-30T06:10:25.762Z,41600.00
2022-07-30T06:11:25.795Z,45696.00
2022-07-30T06:12:25.826Z,46080.00
2022-07-30T06:13:25.859Z,46336.00
2022-07-30T06:14:26.693Z,45376.00
2022-07-30T06:15:28.539Z,44448.00
2022-07-30T06:16:26.784Z,47392.00
2022-07-30T06:17:25.976Z,50016.00
2022-07-30T06:18:26.002Z,50880.00
2022-07-30T06:19:26.037Z,48544.00
2022-07-30T06:20:26.071Z,48288.00
2022-07-30T06:21:26.114Z,53664.00
2022-07-30T06:22:26.343Z,55072.00
2022-07-30T06:23:26.168Z,55488.00
2022-07-30T06:24:26.200Z,54432.00
2022-07-30T06:25:26.444Z,53536.00
2022-07-30T06:26:26.266Z,53792.00
2022-07-30T06:27:28.911Z,52704.00
2022-07-30T06:28:40.248Z,55488.00
2022-07-30T06:29:26.366Z,57664.00
2022-07-30T06:30:31.237Z,58016.00
2022-07-30T06:31:26.473Z,58080.00
2022-07-30T06:32:26.465Z,55680.00
2022-07-30T06:33:26.517Z,54176.00
2022-07-30T06:35:26.567Z,57216.00
2022-07-30T06:36:26.601Z,55680.00
2022-07-30T06:37:58.822Z,58208.00
2022-07-30T06:38:27.073Z,59616.00
2022-07-30T06:39:56.367Z,58816.00
2022-07-30T06:40:26.790Z,55584.00
2022-07-30T06:41:26.770Z,51680.00
2022-07-30T06:42:26.807Z,56768.00
2022-07-30T06:43:26.840Z,61504.00
2022-07-30T06:44:26.879Z,60256.00
2022-07-30T06:45:26.910Z,63200.00
2022-07-30T06:47:09.778Z,26144.00
2022-07-30T06:48:09.542Z,20128.00
2022-07-30T06:49:09.666Z,65024.00
2022-07-30T06:50:09.612Z,61376.00
2022-07-30T06:51:09.645Z,59680.00
2022-07-30T06:52:09.683Z,63392.00
2022-07-30T06:53:09.716Z,61248.00
2022-07-30T06:54:09.753Z,53984.00
2022-07-30T06:55:09.788Z,56768.00
2022-07-30T06:56:09.826Z,58048.00
2022-07-30T06:58:09.897Z,18304.00
2022-07-30T06:59:09.935Z,18464.00
2022-07-30T07:00:09.969Z,22528.00
2022-07-30T07:01:11.586Z,18432.00
2022-07-30T07:02:10.041Z,18080.00
2022-07-30T07:03:11.910Z,25760.00
2022-07-30T07:04:10.161Z,61280.00
2022-07-30T07:05:10.149Z,40672.00
2022-07-30T07:08:10.255Z,16560.00
2022-07-30T07:09:10.291Z,15724.00
2022-07-30T07:10:10.756Z,45536.00
2022-07-30T07:11:10.375Z,60832.00
2022-07-30T07:13:10.641Z,61536.00
2022-07-30T07:14:10.464Z,61120.00
2022-07-30T07:15:10.516Z,61472.00
2022-07-30T07:17:10.669Z,48576.00
2022-07-30T07:18:10.603Z,23904.00
2022-07-30T07:19:10.639Z,17632.00
2022-07-30T07:20:10.675Z,15828.00
2022-07-30T07:21:10.713Z,18592.00
2022-07-30T07:22:10.746Z,24288.00
2022-07-30T07:23:12.393Z,21568.00
2022-07-30T07:25:03.394Z,34080.00
2022-07-30T07:26:03.430Z,54336.00
2022-07-30T07:27:03.663Z,45504.00
2022-07-30T07:28:12.370Z,54848.00
2022-07-30T07:29:05.369Z,60416.00
2022-07-30T07:30:05.593Z,63232.00
2022-07-30T07:32:07.350Z,67648.00
2022-07-30T07:32:51.207Z,50560.00
2022-07-30T07:33:51.242Z,65952.00
2022-07-30T07:34:51.278Z,32128.00
2022-07-30T07:35:51.312Z,59936.00
2022-07-30T07:36:51.348Z,63648.00
2022-07-30T07:37:51.382Z,64800.00
2022-07-30T07:38:51.419Z,65760.00
2022-07-30T07:39:51.454Z,67744.00
2022-07-30T07:40:51.490Z,64096.00
2022-07-30T07:41:51.523Z,64160.00
2022-07-30T07:42:51.560Z,54176.00
2022-07-30T07:43:51.593Z,20608.00
2022-07-30T07:44:51.630Z,20160.00
2022-07-30T07:45:51.757Z,20928.00
2022-07-30T07:46:51.926Z,21952.00
2022-07-30T07:47:53.264Z,55136.00
2022-07-30T07:48:51.858Z,63936.00
2022-07-30T07:49:51.807Z,68320.00
2022-07-30T07:50:51.843Z,67680.00
2022-07-30T07:51:51.875Z,68864.00
2022-07-30T07:52:51.914Z,67232.00
2022-07-30T07:54:18.566Z,66048.00
2022-07-30T07:54:51.986Z,65632.00
2022-07-30T07:55:52.029Z,68416.00
2022-07-30T07:56:57.376Z,70688.00
2022-07-30T07:57:55.924Z,68032.00
2022-07-30T07:58:56.503Z,70528.00
2022-07-30T07:59:52.162Z,68928.00
2022-07-30T08:00:52.255Z,67232.00
2022-07-30T08:01:52.231Z,65280.00
2022-07-30T08:02:52.860Z,63968.00
2022-07-30T08:03:52.306Z,64864.00
2022-07-30T08:04:52.546Z,65856.00
2022-07-30T08:05:58.205Z,67008.00
2022-07-30T08:07:34.990Z,68320.00
2022-07-30T08:11:35.124Z,62464.00
2022-07-30T08:12:35.164Z,66144.00
2022-07-30T08:13:49.335Z,66784.00
2022-07-30T08:14:35.239Z,68000.00
2022-07-30T08:15:35.275Z,68960.00
2022-07-30T08:16:35.395Z,62176.00
2022-07-30T08:18:35.796Z,71776.00
2022-07-30T08:19:35.434Z,41568.00
2022-07-30T08:20:35.466Z,54848.00
2022-07-30T08:21:35.509Z,56864.00
2022-07-30T08:22:35.542Z,66144.00
2022-07-30T08:23:38.693Z,66048.00
2022-07-30T08:24:35.619Z,69280.00
2022-07-30T08:25:35.659Z,61760.00
2022-07-30T08:26:35.698Z,61504.00
2022-07-30T08:27:35.738Z,62624.00
2022-07-30T08:29:28.356Z,57632.00
2022-07-30T08:32:28.691Z,65376.00
2022-07-30T08:33:28.725Z,66496.00
2022-07-30T08:34:28.546Z,61984.00
2022-07-30T08:35:28.583Z,66560.00
2022-07-30T08:43:28.896Z,60064.00
2022-07-30T08:44:28.932Z,62400.00
2022-07-30T08:45:34.949Z,61696.00
2022-07-30T08:47:29.048Z,33280.00
2022-07-30T08:48:29.090Z,34208.00
2022-07-30T08:49:29.125Z,13828.00
2022-07-30T08:50:30.179Z,56032.00
2022-07-30T08:51:29.206Z,59360.00
2022-07-30T08:52:29.246Z,58752.00
2022-07-30T08:53:29.283Z,57888.00
2022-07-30T08:54:29.322Z,58912.00
2022-07-30T08:55:29.362Z,58240.00
2022-07-30T08:56:29.403Z,57120.00
2022-07-30T08:57:29.440Z,54368.00
2022-07-30T08:58:29.484Z,53888.00
2022-07-30T08:59:59.628Z,52256.00
2022-07-30T09:00:29.560Z,52160.00
2022-07-30T09:01:29.598Z,52736.00
2022-07-30T09:02:29.792Z,47200.00
2022-07-30T09:03:29.679Z,26848.00
2022-07-30T09:04:29.719Z,58528.00
2022-07-30T09:05:29.755Z,54464.00
2022-07-30T09:06:29.797Z,48704.00
2022-07-30T09:07:29.836Z,38592.00
2022-07-30T09:08:29.877Z,28960.00
2022-07-30T09:09:29.914Z,26688.00
2022-07-30T09:10:29.953Z,26976.00
2022-07-30T09:11:29.992Z,15124.00
2022-07-30T09:12:30.032Z,21664.00
2022-07-30T09:13:30.070Z,18336.00
2022-07-30T09:14:30.905Z,14628.00
2022-07-30T09:15:30.149Z,13612.00
2022-07-30T09:16:30.189Z,14184.00
2022-07-30T09:17:32.748Z,25728.00
2022-07-30T09:18:30.267Z,22240.00
2022-07-30T09:19:30.303Z,25856.00
2022-07-30T09:20:30.343Z,26080.00
2022-07-30T09:21:30.380Z,25312.00
2022-07-30T09:22:30.420Z,17984.00
2022-07-30T09:23:30.456Z,24288.00
2022-07-30T09:24:30.496Z,23616.00
2022-07-30T09:25:30.937Z,23872.00
2022-07-30T09:26:30.572Z,22240.00
2022-07-30T09:27:30.610Z,13676.00
2022-07-30T09:28:30.650Z,19232.00
2022-07-30T09:29:30.686Z,20352.00
2022-07-30T09:30:32.481Z,20544.00
2022-07-30T09:31:30.816Z,20032.00
2022-07-30T09:32:30.803Z,19808.00
2022-07-30T09:33:30.839Z,19616.00
2022-07-30T09:34:30.879Z,19744.00
2022-07-30T09:35:30.918Z,19232.00
2022-07-30T09:36:30.956Z,21440.00
2022-07-30T09:37:30.992Z,21984.00
2022-07-30T09:38:31.034Z,22304.00
2022-07-30T09:39:31.070Z,20704.00
2022-07-30T09:40:32.220Z,12872.00
2022-07-30T09:41:38.908Z,11556.00
2022-07-30T09:42:31.188Z,10536.00
2022-07-30T09:43:31.223Z,10080.00
2022-07-30T09:44:31.268Z,10764.00
2022-07-30T09:45:34.762Z,17984.00
2022-07-30T09:46:31.339Z,13192.00
2022-07-30T09:49:29.453Z,19264.00
2022-07-30T09:50:30.812Z,19680.00
2022-07-30T09:51:54.632Z,20896.00
2022-07-30T09:52:29.609Z,15224.00
2022-07-30T09:53:29.338Z,16544.00
2022-07-30T09:54:29.379Z,12944.00
2022-07-30T09:55:29.414Z,12128.00
2022-07-30T09:57:50.290Z,11892.00
2022-07-30T09:58:47.135Z,16608.00
2022-07-30T09:59:47.181Z,21120.00
2022-07-30T10:00:47.301Z,21632.00
2022-07-30T10:01:50.966Z,22720.00
2022-07-30T10:02:47.279Z,24480.00
2022-07-30T10:03:47.806Z,23776.00
2022-07-30T10:04:47.553Z,22624.00
2022-07-30T10:05:47.386Z,21888.00
2022-07-30T10:06:47.425Z,21408.00
2022-07-30T10:07:47.470Z,20544.00
2022-07-30T10:08:48.152Z,19840.00
2022-07-30T10:09:47.531Z,18720.00
2022-07-30T10:10:50.742Z,17920.00
2022-07-30T10:11:47.605Z,17792.00
2022-07-30T10:12:47.644Z,16704.00
2022-07-30T10:13:47.678Z,15028.00
2022-07-30T10:14:47.718Z,16192.00
2022-07-30T10:15:47.787Z,9260.00
2022-07-30T10:17:47.852Z,9456.00
2022-07-30T10:18:47.859Z,12724.00
2022-07-30T10:19:47.898Z,14652.00
2022-07-30T10:20:47.936Z,14720.00
2022-07-30T10:21:47.970Z,14588.00
2022-07-30T10:23:50.527Z,15048.00
2022-07-30T10:24:46.526Z,14660.00
2022-07-30T10:24:48.079Z,14848.00
2022-07-30T10:25:49.675Z,14840.00
2022-07-30T10:26:48.177Z,14688.00
2022-07-30T10:27:48.186Z,14504.00
2022-07-30T10:28:49.028Z,14772.00
2022-07-30T10:29:48.258Z,14044.00
2022-07-30T10:30:48.293Z,11292.00
2022-07-30T10:31:54.435Z,9736.00
2022-07-30T10:32:48.365Z,9336.00
2022-07-30T10:33:48.403Z,8988.00
2022-07-30T10:34:48.440Z,9004.00
2022-07-30T10:35:49.533Z,13496.00
2022-07-30T10:37:31.067Z,12300.00
2022-07-30T10:38:31.103Z,11496.00
2022-07-30T10:39:34.521Z,11260.00
2022-07-30T10:40:31.182Z,11116.00
2022-07-30T10:41:42.791Z,11140.00
2022-07-30T10:42:31.249Z,11440.00
2022-07-30T10:43:31.492Z,11808.00
2022-07-30T10:44:31.362Z,11700.00
2022-07-30T10:45:31.354Z,11444.00
2022-07-30T10:46:31.393Z,11476.00
2022-07-30T10:47:33.397Z,11240.00
2022-07-30T10:48:31.464Z,11120.00
2022-07-30T10:49:34.640Z,10320.00
2022-07-30T10:50:31.538Z,10256.00
2022-07-30T10:51:34.765Z,8112.00
2022-07-30T10:52:31.607Z,9776.00
2022-07-30T10:53:31.641Z,9640.00
2022-07-30T10:55:32.865Z,6004.00
2022-07-30T10:56:19.281Z,8304.00
2022-07-30T10:57:32.367Z,9060.00
2022-07-30T10:58:23.055Z,8940.00
2022-07-30T10:59:19.386Z,8652.00
2022-07-30T11:00:19.429Z,8336.00
2022-07-30T11:03:14.941Z,7640.00
2022-07-30T11:04:09.848Z,7596.00
2022-07-30T11:05:09.883Z,7600.00
2022-07-30T11:06:09.922Z,7536.00
2022-07-30T11:07:12.542Z,7524.00
2022-07-30T11:08:09.988Z,7440.00
2022-07-30T11:09:10.023Z,7272.00
2022-07-30T11:10:10.061Z,7196.00
2022-07-30T11:11:19.878Z,7144.00
2022-07-30T11:12:16.370Z,7072.00
2022-07-30T11:13:10.187Z,7108.00
2022-07-30T11:14:10.202Z,7040.00
2022-07-30T11:15:18.459Z,6900.00
2022-07-30T11:16:10.273Z,6744.00
2022-07-30T11:17:10.307Z,6528.00
2022-07-30T11:18:13.076Z,6472.00
2022-07-30T11:19:53.322Z,6372.00
2022-07-30T11:20:11.729Z,6308.00
2022-07-30T11:21:10.452Z,6308.00
2022-07-30T11:22:11.147Z,6368.00
2022-07-30T11:23:10.730Z,6384.00
2022-07-30T11:24:10.769Z,6184.00
2022-07-30T11:25:13.160Z,6296.00
2022-07-30T11:26:14.414Z,6268.00
2022-07-30T11:28:10.693Z,6388.00
2022-07-30T11:29:10.729Z,6420.00
2022-07-30T11:30:10.760Z,6404.00
2022-07-30T11:31:10.798Z,6260.00
2022-07-30T11:32:11.069Z,6656.00
2022-07-30T11:33:10.866Z,6620.00
2022-07-30T11:34:10.900Z,6540.00
2022-07-30T11:35:10.937Z,6640.00
2022-07-30T11:36:12.033Z,6676.00
2022-07-30T11:37:18.133Z,6656.00
2022-07-30T11:38:11.037Z,6624.00
2022-07-30T11:39:11.073Z,6600.00
2022-07-30T11:40:11.261Z,6548.00
2022-07-30T11:41:11.142Z,6528.00
2022-07-30T11:42:11.174Z,6392.00
2022-07-30T11:43:11.211Z,6204.00
2022-07-30T11:44:11.242Z,5884.00
2022-07-30T11:45:11.278Z,5644.00
2022-07-30T11:48:08.947Z,5472.00
2022-07-30T11:49:09.133Z,5476.00
2022-07-30T11:50:09.006Z,5460.00
2022-07-30T11:51:09.042Z,5468.00
2022-07-30T11:52:09.680Z,5460.00
2022-07-30T11:53:09.123Z,5384.00
2022-07-30T11:54:12.370Z,5328.00
2022-07-30T11:55:09.176Z,5420.00
2022-07-30T11:56:09.208Z,5384.00
2022-07-30T11:57:09.242Z,5352.00
2022-07-30T11:58:09.799Z,5340.00
2022-07-30T12:00:09.374Z,5288.00
2022-07-30T12:01:09.687Z,5300.00
2022-07-30T12:02:09.409Z,5264.00
2022-07-30T12:03:09.443Z,5052.00
2022-07-30T12:04:09.489Z,4960.00
2022-07-30T12:05:09.827Z,4852.00
2022-07-30T12:07:09.902Z,5272.00
2022-07-30T12:08:10.374Z,5404.00
2022-07-30T12:09:10.432Z,5496.00
2022-07-30T12:10:09.727Z,5660.00
2022-07-30T12:11:09.912Z,5512.00
2022-07-30T12:22:34.046Z,5836.00
2022-07-30T12:23:34.078Z,5716.00
2022-07-30T12:24:34.109Z,5796.00
2022-07-30T12:25:34.144Z,5880.00
2022-07-30T12:26:34.400Z,5832.00
2022-07-30T12:27:34.210Z,5788.00
2022-07-30T12:28:34.240Z,5772.00
2022-07-30T12:29:34.289Z,5732.00
2022-07-30T12:30:34.307Z,5836.00
2022-07-30T12:32:16.907Z,6080.00
2022-07-30T12:33:16.939Z,6168.00
2022-07-30T12:34:16.959Z,6080.00
2022-07-30T12:35:16.993Z,6128.00
2022-07-30T12:36:17.036Z,6232.00
2022-07-30T12:37:17.277Z,5876.00
2022-07-30T12:38:17.102Z,6176.00
2022-07-30T12:39:17.336Z,6608.00
2022-07-30T12:40:17.164Z,6736.00
2022-07-30T12:41:17.610Z,6736.00
2022-07-30T12:42:17.233Z,6740.00
2022-07-30T12:44:17.300Z,6720.00
2022-07-30T12:45:17.333Z,6672.00
2022-07-30T12:46:17.567Z,6820.00
2022-07-30T12:47:17.383Z,6956.00
2022-07-30T12:48:17.631Z,7040.00
2022-07-30T12:49:21.412Z,7032.00
2022-07-30T12:51:18.037Z,7000.00
2022-07-30T12:53:18.000Z,6848.00
2022-07-30T12:55:17.666Z,6708.00
2022-07-30T12:56:17.689Z,6780.00
2022-07-30T12:57:18.017Z,6852.00
2022-07-30T12:58:18.148Z,6816.00
2022-07-30T12:59:17.792Z,6656.00
2022-07-30T13:02:17.890Z,6856.00
2022-07-30T13:03:17.919Z,7064.00
2022-07-30T13:04:17.958Z,7176.00
2022-07-30T13:05:17.983Z,7212.00
2022-07-30T13:06:18.329Z,7168.00
2022-07-30T13:07:18.052Z,7240.00
2022-07-30T13:10:18.152Z,7132.00
2022-07-30T13:11:18.180Z,7032.00
2022-07-30T13:12:18.526Z,6748.00
2022-07-30T13:13:18.248Z,6512.00
2022-07-30T13:14:18.996Z,6324.00
2022-07-30T13:18:18.414Z,6344.00
2022-07-30T13:19:18.449Z,6228.00
2022-07-30T13:20:18.480Z,6100.00
2022-07-30T13:21:18.522Z,6052.00
2022-07-30T13:23:19.287Z,6272.00
2022-07-30T13:25:18.659Z,6388.00
2022-07-30T13:27:18.908Z,6156.00
2022-07-30T13:30:19.012Z,5792.00
2022-07-30T13:31:19.045Z,5576.00
2022-07-30T13:32:19.588Z,5408.00